Stampa

METAR LIMF - Aeroporto di Torino Caselle

Torino / Caselle, Italy (LIMF) 45-13N 007-39E 287M

Aug 19, 2019 - 05:20 PM EDT / 2019.08.19 2120 UTC

Wind: from the NW (310 degrees) at 5 MPH (4 KT):0

Visibility: greater than 7 mile(s):0

Sky conditions: mostly cloudy

Temperature: 73 F (23 C)

Dew Point: 68 F (20 C)

Relative Humidity: 83%

Pressure (altimeter): 30.06 in. Hg (1018 hPa)

ob: LIMF 192120Z 31004KT 9999 BKN030 23/20 Q1018

cycle: 21

 Dati METAR in tempo reale | Fonte: NOAA

Valuta questo articolo

1 1 1 1 1 1 1 1 1 1 Valutazione 0.00 (0 Voti)

hits
211
Ritieni il contenuto di questa pagina incompleto, non attendibile oppure oggetto di altre problematiche? INVIA UNA SEGNALAZIONE Grazie!